sensor_id;sensor_type;location;lat;lon;timestamp;P1;durP1;ratioP1;P2;durP2;ratioP2
84864;SDS011;75122;41.650;25.368;2024-01-27T00:01:13;4.43;;;2.40;;
84864;SDS011;75122;41.650;25.368;2024-01-27T00:03:39;8.05;;;3.20;;
84864;SDS011;75122;41.650;25.368;2024-01-27T00:06:04;6.97;;;2.35;;
84864;SDS011;75122;41.650;25.368;2024-01-27T00:08:30;4.60;;;2.38;;
84864;SDS011;75122;41.650;25.368;2024-01-27T00:10:55;4.68;;;2.42;;
84864;SDS011;75122;41.650;25.368;2024-01-27T00:13:21;10.13;;;4.38;;
84864;SDS011;75122;41.650;25.368;2024-01-27T00:15:46;5.28;;;2.50;;
84864;SDS011;75122;41.650;25.368;2024-01-27T00:18:12;7.00;;;2.47;;
84864;SDS011;75122;41.650;25.368;2024-01-27T00:20:37;8.18;;;2.97;;
84864;SDS011;75122;41.650;25.368;2024-01-27T00:23:03;5.68;;;2.30;;
84864;SDS011;75122;41.650;25.368;2024-01-27T00:25:29;4.13;;;2.03;;
84864;SDS011;75122;41.650;25.368;2024-01-27T00:27:54;3.78;;;2.08;;
84864;SDS011;75122;41.650;25.368;2024-01-27T00:30:20;7.35;;;2.60;;
84864;SDS011;75122;41.650;25.368;2024-01-27T00:32:45;7.55;;;3.15;;
84864;SDS011;75122;41.650;25.368;2024-01-27T00:35:11;8.60;;;3.15;;
84864;SDS011;75122;41.650;25.368;2024-01-27T00:37:39;5.75;;;2.75;;
84864;SDS011;75122;41.650;25.368;2024-01-27T00:40:07;4.55;;;2.53;;
84864;SDS011;75122;41.650;25.368;2024-01-27T00:42:36;3.95;;;1.92;;
84864;SDS011;75122;41.650;25.368;2024-01-27T00:45:03;3.92;;;2.30;;
84864;SDS011;75122;41.650;25.368;2024-01-27T00:47:30;2.65;;;1.83;;
84864;SDS011;75122;41.650;25.368;2024-01-27T00:49:55;7.50;;;3.05;;
84864;SDS011;75122;41.650;25.368;2024-01-27T00:52:21;3.80;;;2.83;;
84864;SDS011;75122;41.650;25.368;2024-01-27T00:54:46;4.78;;;2.30;;
84864;SDS011;75122;41.650;25.368;2024-01-27T00:57:12;7.30;;;3.15;;
84864;SDS011;75122;41.650;25.368;2024-01-27T00:59:37;4.70;;;2.85;;
84864;SDS011;75122;41.650;25.368;2024-01-27T01:02:04;6.15;;;3.90;;
84864;SDS011;75122;41.650;25.368;2024-01-27T01:04:29;4.72;;;2.47;;
84864;SDS011;75122;41.650;25.368;2024-01-27T01:06:55;6.93;;;2.95;;
84864;SDS011;75122;41.650;25.368;2024-01-27T01:09:20;6.35;;;3.35;;
84864;SDS011;75122;41.650;25.368;2024-01-27T01:11:46;4.60;;;2.25;;
84864;SDS011;75122;41.650;25.368;2024-01-27T01:14:11;5.18;;;2.60;;
84864;SDS011;75122;41.650;25.368;2024-01-27T01:16:37;4.05;;;2.35;;
84864;SDS011;75122;41.650;25.368;2024-01-27T01:19:02;6.03;;;2.72;;
84864;SDS011;75122;41.650;25.368;2024-01-27T01:21:27;7.30;;;2.47;;
84864;SDS011;75122;41.650;25.368;2024-01-27T01:23:53;6.05;;;2.67;;
84864;SDS011;75122;41.650;25.368;2024-01-27T01:26:19;5.07;;;2.28;;
84864;SDS011;75122;41.650;25.368;2024-01-27T01:28:44;6.68;;;2.90;;
84864;SDS011;75122;41.650;25.368;2024-01-27T01:31:09;5.90;;;2.97;;
84864;SDS011;75122;41.650;25.368;2024-01-27T01:33:35;5.40;;;2.20;;
84864;SDS011;75122;41.650;25.368;2024-01-27T01:36:00;6.07;;;2.78;;
84864;SDS011;75122;41.650;25.368;2024-01-27T01:38:26;4.82;;;2.60;;
84864;SDS011;75122;41.650;25.368;2024-01-27T01:40:51;7.03;;;2.92;;
84864;SDS011;75122;41.650;25.368;2024-01-27T01:43:16;7.85;;;3.67;;
84864;SDS011;75122;41.650;25.368;2024-01-27T01:45:42;8.95;;;3.45;;
84864;SDS011;75122;41.650;25.368;2024-01-27T01:48:07;5.50;;;2.58;;
84864;SDS011;75122;41.650;25.368;2024-01-27T01:50:34;4.63;;;2.30;;
84864;SDS011;75122;41.650;25.368;2024-01-27T01:52:59;5.40;;;2.15;;
84864;SDS011;75122;41.650;25.368;2024-01-27T01:55:26;4.65;;;2.67;;
84864;SDS011;75122;41.650;25.368;2024-01-27T01:57:51;5.53;;;2.30;;
84864;SDS011;75122;41.650;25.368;2024-01-27T02:00:17;4.38;;;2.53;;
84864;SDS011;75122;41.650;25.368;2024-01-27T02:02:46;7.38;;;3.47;;
84864;SDS011;75122;41.650;25.368;2024-01-27T02:05:14;5.22;;;2.53;;
84864;SDS011;75122;41.650;25.368;2024-01-27T02:07:40;3.25;;;2.05;;
84864;SDS011;75122;41.650;25.368;2024-01-27T02:10:06;9.07;;;2.63;;
84864;SDS011;75122;41.650;25.368;2024-01-27T02:12:38;5.35;;;2.35;;
84864;SDS011;75122;41.650;25.368;2024-01-27T02:15:04;3.95;;;1.73;;
84864;SDS011;75122;41.650;25.368;2024-01-27T02:17:29;5.22;;;2.20;;
84864;SDS011;75122;41.650;25.368;2024-01-27T02:19:55;3.03;;;1.40;;
84864;SDS011;75122;41.650;25.368;2024-01-27T02:22:20;4.78;;;2.20;;
84864;SDS011;75122;41.650;25.368;2024-01-27T02:24:45;21.60;;;10.95;;
84864;SDS011;75122;41.650;25.368;2024-01-27T02:27:12;16.25;;;8.02;;
84864;SDS011;75122;41.650;25.368;2024-01-27T02:29:37;8.35;;;3.38;;
84864;SDS011;75122;41.650;25.368;2024-01-27T02:32:03;6.75;;;2.92;;
84864;SDS011;75122;41.650;25.368;2024-01-27T02:34:29;5.90;;;2.22;;
84864;SDS011;75122;41.650;25.368;2024-01-27T02:36:54;6.75;;;2.70;;
84864;SDS011;75122;41.650;25.368;2024-01-27T02:39:20;6.38;;;2.40;;
84864;SDS011;75122;41.650;25.368;2024-01-27T02:41:46;5.70;;;2.55;;
84864;SDS011;75122;41.650;25.368;2024-01-27T02:44:12;5.53;;;2.83;;
84864;SDS011;75122;41.650;25.368;2024-01-27T02:46:37;8.73;;;3.20;;
84864;SDS011;75122;41.650;25.368;2024-01-27T02:49:03;5.20;;;2.13;;
84864;SDS011;75122;41.650;25.368;2024-01-27T02:51:28;6.03;;;2.03;;
84864;SDS011;75122;41.650;25.368;2024-01-27T02:53:54;6.13;;;2.20;;
84864;SDS011;75122;41.650;25.368;2024-01-27T02:56:19;6.15;;;2.17;;
84864;SDS011;75122;41.650;25.368;2024-01-27T02:58:44;6.13;;;3.15;;
84864;SDS011;75122;41.650;25.368;2024-01-27T03:01:10;7.68;;;2.88;;
84864;SDS011;75122;41.650;25.368;2024-01-27T03:03:35;5.22;;;2.63;;
84864;SDS011;75122;41.650;25.368;2024-01-27T03:06:01;6.40;;;2.63;;
84864;SDS011;75122;41.650;25.368;2024-01-27T03:08:26;4.13;;;2.35;;
84864;SDS011;75122;41.650;25.368;2024-01-27T03:10:52;10.80;;;3.97;;
84864;SDS011;75122;41.650;25.368;2024-01-27T03:13:17;10.57;;;6.00;;
84864;SDS011;75122;41.650;25.368;2024-01-27T03:15:44;24.13;;;11.75;;
84864;SDS011;75122;41.650;25.368;2024-01-27T03:18:09;14.52;;;6.97;;
84864;SDS011;75122;41.650;25.368;2024-01-27T03:20:35;11.82;;;5.28;;
84864;SDS011;75122;41.650;25.368;2024-01-27T03:23:00;4.95;;;2.08;;
84864;SDS011;75122;41.650;25.368;2024-01-27T03:25:25;6.82;;;3.13;;
84864;SDS011;75122;41.650;25.368;2024-01-27T03:27:51;4.57;;;2.25;;
84864;SDS011;75122;41.650;25.368;2024-01-27T03:30:17;6.20;;;2.20;;
84864;SDS011;75122;41.650;25.368;2024-01-27T03:32:42;4.90;;;2.33;;
84864;SDS011;75122;41.650;25.368;2024-01-27T03:35:08;4.80;;;2.72;;
84864;SDS011;75122;41.650;25.368;2024-01-27T03:37:34;8.23;;;4.00;;
84864;SDS011;75122;41.650;25.368;2024-01-27T03:39:59;5.88;;;3.05;;
84864;SDS011;75122;41.650;25.368;2024-01-27T03:42:25;11.10;;;5.50;;
84864;SDS011;75122;41.650;25.368;2024-01-27T03:44:51;9.02;;;4.68;;
84864;SDS011;75122;41.650;25.368;2024-01-27T03:47:16;7.35;;;3.15;;
84864;SDS011;75122;41.650;25.368;2024-01-27T03:49:42;6.97;;;2.97;;
84864;SDS011;75122;41.650;25.368;2024-01-27T03:52:08;3.13;;;2.35;;
84864;SDS011;75122;41.650;25.368;2024-01-27T03:54:33;5.80;;;2.97;;
84864;SDS011;75122;41.650;25.368;2024-01-27T03:56:59;5.25;;;2.65;;
84864;SDS011;75122;41.650;25.368;2024-01-27T03:59:24;3.60;;;2.08;;
84864;SDS011;75122;41.650;25.368;2024-01-27T04:01:50;4.72;;;2.55;;
84864;SDS011;75122;41.650;25.368;2024-01-27T04:04:15;5.03;;;2.42;;
84864;SDS011;75122;41.650;25.368;2024-01-27T04:06:41;4.57;;;2.90;;
84864;SDS011;75122;41.650;25.368;2024-01-27T04:09:06;5.82;;;2.97;;
84864;SDS011;75122;41.650;25.368;2024-01-27T04:11:36;5.65;;;3.30;;
84864;SDS011;75122;41.650;25.368;2024-01-27T04:14:02;7.75;;;3.15;;
84864;SDS011;75122;41.650;25.368;2024-01-27T04:16:29;8.43;;;3.08;;
84864;SDS011;75122;41.650;25.368;2024-01-27T04:18:54;6.88;;;2.88;;
84864;SDS011;75122;41.650;25.368;2024-01-27T04:21:19;6.95;;;3.97;;
84864;SDS011;75122;41.650;25.368;2024-01-27T04:23:45;8.45;;;4.65;;
84864;SDS011;75122;41.650;25.368;2024-01-27T04:26:10;9.38;;;5.07;;
84864;SDS011;75122;41.650;25.368;2024-01-27T04:28:36;8.95;;;4.03;;
84864;SDS011;75122;41.650;25.368;2024-01-27T04:31:02;12.15;;;4.80;;
84864;SDS011;75122;41.650;25.368;2024-01-27T04:33:28;9.02;;;4.95;;
84864;SDS011;75122;41.650;25.368;2024-01-27T04:35:53;8.00;;;4.03;;
84864;SDS011;75122;41.650;25.368;2024-01-27T04:38:18;9.10;;;5.03;;
84864;SDS011;75122;41.650;25.368;2024-01-27T04:40:44;5.57;;;3.65;;
84864;SDS011;75122;41.650;25.368;2024-01-27T04:43:09;10.13;;;4.10;;
84864;SDS011;75122;41.650;25.368;2024-01-27T04:45:35;8.27;;;3.40;;
84864;SDS011;75122;41.650;25.368;2024-01-27T04:48:00;11.18;;;4.03;;
84864;SDS011;75122;41.650;25.368;2024-01-27T04:50:26;21.48;;;9.90;;
84864;SDS011;75122;41.650;25.368;2024-01-27T04:52:52;6.30;;;3.25;;
84864;SDS011;75122;41.650;25.368;2024-01-27T04:55:17;10.68;;;4.78;;
84864;SDS011;75122;41.650;25.368;2024-01-27T04:57:43;6.82;;;3.55;;
84864;SDS011;75122;41.650;25.368;2024-01-27T05:00:09;13.80;;;6.88;;
84864;SDS011;75122;41.650;25.368;2024-01-27T05:02:39;13.32;;;6.40;;
84864;SDS011;75122;41.650;25.368;2024-01-27T05:05:06;17.23;;;9.82;;
84864;SDS011;75122;41.650;25.368;2024-01-27T05:07:32;18.95;;;9.70;;
84864;SDS011;75122;41.650;25.368;2024-01-27T05:09:57;20.60;;;9.57;;
84864;SDS011;75122;41.650;25.368;2024-01-27T05:12:23;12.88;;;7.00;;
84864;SDS011;75122;41.650;25.368;2024-01-27T05:14:48;14.90;;;5.18;;
84864;SDS011;75122;41.650;25.368;2024-01-27T05:17:14;9.82;;;4.57;;
84864;SDS011;75122;41.650;25.368;2024-01-27T05:19:39;10.95;;;5.28;;
84864;SDS011;75122;41.650;25.368;2024-01-27T05:22:05;9.48;;;4.88;;
84864;SDS011;75122;41.650;25.368;2024-01-27T05:24:30;11.10;;;4.82;;
84864;SDS011;75122;41.650;25.368;2024-01-27T05:26:55;19.33;;;10.48;;
84864;SDS011;75122;41.650;25.368;2024-01-27T05:29:21;17.00;;;9.13;;
84864;SDS011;75122;41.650;25.368;2024-01-27T05:31:46;12.93;;;5.85;;
84864;SDS011;75122;41.650;25.368;2024-01-27T05:34:12;23.25;;;9.95;;
84864;SDS011;75122;41.650;25.368;2024-01-27T05:36:37;35.20;;;14.35;;
84864;SDS011;75122;41.650;25.368;2024-01-27T05:39:03;39.30;;;17.08;;
84864;SDS011;75122;41.650;25.368;2024-01-27T05:41:29;34.53;;;16.88;;
84864;SDS011;75122;41.650;25.368;2024-01-27T05:43:55;36.00;;;15.88;;
84864;SDS011;75122;41.650;25.368;2024-01-27T05:46:22;73.18;;;27.52;;
84864;SDS011;75122;41.650;25.368;2024-01-27T05:48:49;72.72;;;29.15;;
84864;SDS011;75122;41.650;25.368;2024-01-27T05:51:16;128.23;;;44.22;;
84864;SDS011;75122;41.650;25.368;2024-01-27T05:53:41;73.65;;;26.33;;
84864;SDS011;75122;41.650;25.368;2024-01-27T05:56:07;25.40;;;12.27;;
84864;SDS011;75122;41.650;25.368;2024-01-27T05:58:32;51.50;;;21.95;;
84864;SDS011;75122;41.650;25.368;2024-01-27T06:00:58;171.80;;;65.30;;
84864;SDS011;75122;41.650;25.368;2024-01-27T06:03:23;97.60;;;34.35;;
84864;SDS011;75122;41.650;25.368;2024-01-27T06:05:49;27.92;;;13.27;;
84864;SDS011;75122;41.650;25.368;2024-01-27T06:08:14;72.45;;;27.10;;
84864;SDS011;75122;41.650;25.368;2024-01-27T06:10:40;27.63;;;12.40;;
84864;SDS011;75122;41.650;25.368;2024-01-27T06:13:05;37.92;;;17.20;;
84864;SDS011;75122;41.650;25.368;2024-01-27T06:15:31;25.42;;;12.35;;
84864;SDS011;75122;41.650;25.368;2024-01-27T06:17:56;35.28;;;17.23;;
84864;SDS011;75122;41.650;25.368;2024-01-27T06:20:22;22.75;;;12.10;;
84864;SDS011;75122;41.650;25.368;2024-01-27T06:22:48;19.60;;;10.55;;
84864;SDS011;75122;41.650;25.368;2024-01-27T06:25:14;27.83;;;13.52;;
84864;SDS011;75122;41.650;25.368;2024-01-27T06:27:40;23.73;;;11.13;;
84864;SDS011;75122;41.650;25.368;2024-01-27T06:30:07;20.48;;;10.05;;
84864;SDS011;75122;41.650;25.368;2024-01-27T06:32:32;24.48;;;11.00;;
84864;SDS011;75122;41.650;25.368;2024-01-27T06:34:58;24.23;;;10.93;;
84864;SDS011;75122;41.650;25.368;2024-01-27T06:37:23;23.38;;;11.70;;
84864;SDS011;75122;41.650;25.368;2024-01-27T06:39:49;23.70;;;10.55;;
84864;SDS011;75122;41.650;25.368;2024-01-27T06:42:14;22.15;;;9.98;;
84864;SDS011;75122;41.650;25.368;2024-01-27T06:44:40;30.73;;;11.90;;
84864;SDS011;75122;41.650;25.368;2024-01-27T06:47:05;22.63;;;12.75;;
84864;SDS011;75122;41.650;25.368;2024-01-27T06:49:31;17.48;;;10.05;;
84864;SDS011;75122;41.650;25.368;2024-01-27T06:51:56;26.95;;;12.10;;
84864;SDS011;75122;41.650;25.368;2024-01-27T06:54:22;26.52;;;11.60;;
84864;SDS011;75122;41.650;25.368;2024-01-27T06:56:47;32.83;;;14.95;;
84864;SDS011;75122;41.650;25.368;2024-01-27T06:59:12;26.55;;;11.98;;
84864;SDS011;75122;41.650;25.368;2024-01-27T07:01:38;22.95;;;10.95;;
84864;SDS011;75122;41.650;25.368;2024-01-27T07:04:03;24.75;;;10.70;;
84864;SDS011;75122;41.650;25.368;2024-01-27T07:06:30;18.85;;;9.50;;
84864;SDS011;75122;41.650;25.368;2024-01-27T07:08:55;19.45;;;9.57;;
84864;SDS011;75122;41.650;25.368;2024-01-27T07:11:21;25.52;;;12.13;;
84864;SDS011;75122;41.650;25.368;2024-01-27T07:13:46;25.35;;;12.77;;
84864;SDS011;75122;41.650;25.368;2024-01-27T07:16:11;37.15;;;17.08;;
84864;SDS011;75122;41.650;25.368;2024-01-27T07:18:37;45.05;;;21.52;;
84864;SDS011;75122;41.650;25.368;2024-01-27T07:21:02;48.72;;;21.92;;
84864;SDS011;75122;41.650;25.368;2024-01-27T07:23:28;39.47;;;18.35;;
84864;SDS011;75122;41.650;25.368;2024-01-27T07:25:53;38.80;;;19.67;;
84864;SDS011;75122;41.650;25.368;2024-01-27T07:28:19;47.95;;;21.35;;
84864;SDS011;75122;41.650;25.368;2024-01-27T07:30:44;51.55;;;23.17;;
84864;SDS011;75122;41.650;25.368;2024-01-27T07:33:10;37.35;;;18.95;;
84864;SDS011;75122;41.650;25.368;2024-01-27T07:35:35;35.80;;;18.88;;
84864;SDS011;75122;41.650;25.368;2024-01-27T07:38:01;36.42;;;15.48;;
84864;SDS011;75122;41.650;25.368;2024-01-27T07:40:26;27.08;;;12.52;;
84864;SDS011;75122;41.650;25.368;2024-01-27T07:42:52;30.05;;;13.70;;
84864;SDS011;75122;41.650;25.368;2024-01-27T07:45:17;25.98;;;13.70;;
84864;SDS011;75122;41.650;25.368;2024-01-27T07:47:42;30.75;;;13.02;;
84864;SDS011;75122;41.650;25.368;2024-01-27T07:50:08;22.50;;;9.48;;
84864;SDS011;75122;41.650;25.368;2024-01-27T07:52:34;15.07;;;7.03;;
84864;SDS011;75122;41.650;25.368;2024-01-27T07:55:00;23.23;;;9.35;;
84864;SDS011;75122;41.650;25.368;2024-01-27T07:57:26;10.95;;;6.72;;
84864;SDS011;75122;41.650;25.368;2024-01-27T07:59:52;10.57;;;6.38;;
84864;SDS011;75122;41.650;25.368;2024-01-27T08:02:17;11.82;;;5.68;;
84864;SDS011;75122;41.650;25.368;2024-01-27T08:04:43;13.55;;;5.57;;
84864;SDS011;75122;41.650;25.368;2024-01-27T08:07:08;17.80;;;7.40;;
84864;SDS011;75122;41.650;25.368;2024-01-27T08:09:35;13.57;;;6.55;;
84864;SDS011;75122;41.650;25.368;2024-01-27T08:12:01;13.00;;;7.03;;
84864;SDS011;75122;41.650;25.368;2024-01-27T08:14:27;25.25;;;12.32;;
84864;SDS011;75122;41.650;25.368;2024-01-27T08:16:55;139.73;;;58.22;;
84864;SDS011;75122;41.650;25.368;2024-01-27T08:19:23;23.33;;;13.30;;
84864;SDS011;75122;41.650;25.368;2024-01-27T08:21:49;16.48;;;8.88;;
84864;SDS011;75122;41.650;25.368;2024-01-27T08:24:14;17.23;;;10.05;;
84864;SDS011;75122;41.650;25.368;2024-01-27T08:26:40;19.00;;;10.23;;
84864;SDS011;75122;41.650;25.368;2024-01-27T08:29:07;20.25;;;11.15;;
84864;SDS011;75122;41.650;25.368;2024-01-27T08:31:35;46.55;;;23.33;;
84864;SDS011;75122;41.650;25.368;2024-01-27T08:34:03;52.15;;;24.30;;
84864;SDS011;75122;41.650;25.368;2024-01-27T08:36:28;45.85;;;23.48;;
84864;SDS011;75122;41.650;25.368;2024-01-27T08:38:55;49.30;;;21.80;;
84864;SDS011;75122;41.650;25.368;2024-01-27T08:41:22;38.60;;;17.92;;
84864;SDS011;75122;41.650;25.368;2024-01-27T08:43:47;44.05;;;21.55;;
84864;SDS011;75122;41.650;25.368;2024-01-27T08:46:13;48.83;;;22.67;;
84864;SDS011;75122;41.650;25.368;2024-01-27T08:48:40;47.33;;;22.13;;
84864;SDS011;75122;41.650;25.368;2024-01-27T08:51:08;46.67;;;23.02;;
84864;SDS011;75122;41.650;25.368;2024-01-27T08:53:35;55.53;;;27.65;;
84864;SDS011;75122;41.650;25.368;2024-01-27T08:56:01;50.65;;;24.88;;
84864;SDS011;75122;41.650;25.368;2024-01-27T08:58:27;55.17;;;25.42;;
84864;SDS011;75122;41.650;25.368;2024-01-27T09:00:52;57.47;;;29.05;;
84864;SDS011;75122;41.650;25.368;2024-01-27T09:03:18;82.32;;;39.92;;
84864;SDS011;75122;41.650;25.368;2024-01-27T09:05:45;51.75;;;25.98;;
84864;SDS011;75122;41.650;25.368;2024-01-27T09:08:14;70.65;;;36.67;;
84864;SDS011;75122;41.650;25.368;2024-01-27T09:10:40;75.43;;;38.42;;
84864;SDS011;75122;41.650;25.368;2024-01-27T09:13:05;81.70;;;40.78;;
84864;SDS011;75122;41.650;25.368;2024-01-27T09:15:30;64.10;;;34.03;;
84864;SDS011;75122;41.650;25.368;2024-01-27T09:17:56;70.97;;;33.95;;
84864;SDS011;75122;41.650;25.368;2024-01-27T09:20:22;67.05;;;29.58;;
84864;SDS011;75122;41.650;25.368;2024-01-27T09:22:48;62.13;;;30.27;;
84864;SDS011;75122;41.650;25.368;2024-01-27T09:25:14;49.92;;;25.35;;
84864;SDS011;75122;41.650;25.368;2024-01-27T09:27:40;47.42;;;21.65;;
84864;SDS011;75122;41.650;25.368;2024-01-27T09:30:06;49.50;;;24.88;;
84864;SDS011;75122;41.650;25.368;2024-01-27T09:32:32;43.30;;;20.85;;
84864;SDS011;75122;41.650;25.368;2024-01-27T09:34:57;39.72;;;17.52;;
84864;SDS011;75122;41.650;25.368;2024-01-27T09:37:23;32.67;;;16.05;;
84864;SDS011;75122;41.650;25.368;2024-01-27T09:39:48;31.02;;;15.55;;
84864;SDS011;75122;41.650;25.368;2024-01-27T09:42:14;92.85;;;44.67;;
84864;SDS011;75122;41.650;25.368;2024-01-27T09:44:42;73.95;;;35.05;;
84864;SDS011;75122;41.650;25.368;2024-01-27T09:47:10;57.70;;;26.27;;
84864;SDS011;75122;41.650;25.368;2024-01-27T09:49:38;48.35;;;21.13;;
84864;SDS011;75122;41.650;25.368;2024-01-27T09:52:05;36.08;;;18.90;;
84864;SDS011;75122;41.650;25.368;2024-01-27T09:54:30;37.92;;;20.45;;
84864;SDS011;75122;41.650;25.368;2024-01-27T09:56:56;43.40;;;22.83;;
84864;SDS011;75122;41.650;25.368;2024-01-27T09:59:23;35.70;;;19.77;;
84864;SDS011;75122;41.650;25.368;2024-01-27T10:01:50;42.60;;;20.98;;
84864;SDS011;75122;41.650;25.368;2024-01-27T10:04:21;59.45;;;28.73;;
84864;SDS011;75122;41.650;25.368;2024-01-27T10:06:48;49.90;;;27.80;;
84864;SDS011;75122;41.650;25.368;2024-01-27T10:09:15;50.05;;;21.75;;
84864;SDS011;75122;41.650;25.368;2024-01-27T10:11:43;43.28;;;22.15;;
84864;SDS011;75122;41.650;25.368;2024-01-27T10:14:11;44.30;;;22.63;;
84864;SDS011;75122;41.650;25.368;2024-01-27T10:16:54;41.22;;;22.17;;
84864;SDS011;75122;41.650;25.368;2024-01-27T10:19:20;38.08;;;20.00;;
84864;SDS011;75122;41.650;25.368;2024-01-27T10:21:46;38.67;;;19.05;;
84864;SDS011;75122;41.650;25.368;2024-01-27T10:24:12;45.60;;;19.65;;
84864;SDS011;75122;41.650;25.368;2024-01-27T10:26:38;51.50;;;19.45;;
84864;SDS011;75122;41.650;25.368;2024-01-27T10:29:03;33.72;;;17.27;;
84864;SDS011;75122;41.650;25.368;2024-01-27T10:31:33;28.65;;;13.27;;
84864;SDS011;75122;41.650;25.368;2024-01-27T10:34:00;29.85;;;13.52;;
84864;SDS011;75122;41.650;25.368;2024-01-27T10:36:27;22.38;;;11.50;;
84864;SDS011;75122;41.650;25.368;2024-01-27T10:39:02;19.13;;;9.68;;
84864;SDS011;75122;41.650;25.368;2024-01-27T10:41:43;18.77;;;9.98;;
84864;SDS011;75122;41.650;25.368;2024-01-27T10:44:11;25.25;;;12.48;;
84864;SDS011;75122;41.650;25.368;2024-01-27T10:46:39;33.67;;;15.52;;
84864;SDS011;75122;41.650;25.368;2024-01-27T10:49:12;19.40;;;10.23;;
84864;SDS011;75122;41.650;25.368;2024-01-27T10:51:38;19.30;;;7.57;;
84864;SDS011;75122;41.650;25.368;2024-01-27T10:54:15;18.85;;;11.35;;
84864;SDS011;75122;41.650;25.368;2024-01-27T10:56:48;14.02;;;8.27;;
84864;SDS011;75122;41.650;25.368;2024-01-27T10:59:16;23.27;;;9.52;;
84864;SDS011;75122;41.650;25.368;2024-01-27T11:01:46;16.80;;;8.50;;
84864;SDS011;75122;41.650;25.368;2024-01-27T11:04:16;18.08;;;9.38;;
84864;SDS011;75122;41.650;25.368;2024-01-27T11:06:43;21.45;;;10.35;;
84864;SDS011;75122;41.650;25.368;2024-01-27T11:09:09;15.57;;;7.13;;
84864;SDS011;75122;41.650;25.368;2024-01-27T11:11:37;24.40;;;14.70;;
84864;SDS011;75122;41.650;25.368;2024-01-27T11:14:05;18.67;;;8.43;;
84864;SDS011;75122;41.650;25.368;2024-01-27T11:16:30;15.45;;;8.23;;
84864;SDS011;75122;41.650;25.368;2024-01-27T11:18:56;14.73;;;8.85;;
84864;SDS011;75122;41.650;25.368;2024-01-27T11:21:21;9.68;;;5.85;;
84864;SDS011;75122;41.650;25.368;2024-01-27T11:23:47;9.05;;;5.60;;
84864;SDS011;75122;41.650;25.368;2024-01-27T11:26:18;9.05;;;5.32;;
84864;SDS011;75122;41.650;25.368;2024-01-27T11:28:45;12.52;;;6.78;;
84864;SDS011;75122;41.650;25.368;2024-01-27T11:31:10;18.15;;;9.82;;
84864;SDS011;75122;41.650;25.368;2024-01-27T11:33:43;11.00;;;6.18;;
84864;SDS011;75122;41.650;25.368;2024-01-27T11:36:14;14.05;;;7.45;;
84864;SDS011;75122;41.650;25.368;2024-01-27T11:38:44;16.10;;;6.80;;
84864;SDS011;75122;41.650;25.368;2024-01-27T11:41:09;14.88;;;6.90;;
84864;SDS011;75122;41.650;25.368;2024-01-27T11:43:35;11.93;;;7.15;;
84864;SDS011;75122;41.650;25.368;2024-01-27T11:46:00;12.35;;;7.03;;
84864;SDS011;75122;41.650;25.368;2024-01-27T11:48:27;12.98;;;5.72;;
84864;SDS011;75122;41.650;25.368;2024-01-27T11:51:10;10.57;;;5.50;;
84864;SDS011;75122;41.650;25.368;2024-01-27T11:53:36;8.88;;;5.25;;
84864;SDS011;75122;41.650;25.368;2024-01-27T11:56:02;11.75;;;5.88;;
84864;SDS011;75122;41.650;25.368;2024-01-27T11:58:29;12.68;;;5.95;;
84864;SDS011;75122;41.650;25.368;2024-01-27T12:00:55;15.63;;;5.75;;
84864;SDS011;75122;41.650;25.368;2024-01-27T12:03:21;10.68;;;4.82;;
84864;SDS011;75122;41.650;25.368;2024-01-27T12:05:47;11.25;;;5.13;;
84864;SDS011;75122;41.650;25.368;2024-01-27T12:08:12;9.50;;;4.93;;
84864;SDS011;75122;41.650;25.368;2024-01-27T12:10:38;11.23;;;5.30;;
84864;SDS011;75122;41.650;25.368;2024-01-27T12:13:03;11.85;;;7.25;;
84864;SDS011;75122;41.650;25.368;2024-01-27T12:15:29;13.35;;;5.40;;
84864;SDS011;75122;41.650;25.368;2024-01-27T12:17:55;9.70;;;3.53;;
84864;SDS011;75122;41.650;25.368;2024-01-27T12:20:21;8.07;;;3.30;;
84864;SDS011;75122;41.650;25.368;2024-01-27T12:22:47;9.50;;;5.18;;
84864;SDS011;75122;41.650;25.368;2024-01-27T12:25:15;7.80;;;4.90;;
84864;SDS011;75122;41.650;25.368;2024-01-27T12:27:42;15.48;;;5.90;;
84864;SDS011;75122;41.650;25.368;2024-01-27T12:30:09;10.75;;;5.00;;
84864;SDS011;75122;41.650;25.368;2024-01-27T12:32:35;5.85;;;3.72;;
84864;SDS011;75122;41.650;25.368;2024-01-27T12:35:04;7.00;;;3.80;;
84864;SDS011;75122;41.650;25.368;2024-01-27T12:37:36;9.82;;;4.20;;
84864;SDS011;75122;41.650;25.368;2024-01-27T12:40:02;9.30;;;3.75;;
84864;SDS011;75122;41.650;25.368;2024-01-27T12:42:41;22.75;;;10.20;;
84864;SDS011;75122;41.650;25.368;2024-01-27T12:45:07;8.68;;;5.22;;
84864;SDS011;75122;41.650;25.368;2024-01-27T12:47:33;11.80;;;5.10;;
84864;SDS011;75122;41.650;25.368;2024-01-27T12:49:58;36.65;;;16.13;;
84864;SDS011;75122;41.650;25.368;2024-01-27T12:52:23;15.70;;;8.25;;
84864;SDS011;75122;41.650;25.368;2024-01-27T12:54:49;3.47;;;2.08;;
84864;SDS011;75122;41.650;25.368;2024-01-27T12:57:15;3.60;;;2.42;;
84864;SDS011;75122;41.650;25.368;2024-01-27T12:59:42;6.47;;;3.33;;
84864;SDS011;75122;41.650;25.368;2024-01-27T13:02:07;8.48;;;3.25;;
84864;SDS011;75122;41.650;25.368;2024-01-27T13:04:33;5.03;;;2.45;;
84864;SDS011;75122;41.650;25.368;2024-01-27T13:06:58;3.35;;;1.98;;
84864;SDS011;75122;41.650;25.368;2024-01-27T13:09:24;6.50;;;2.30;;
84864;SDS011;75122;41.650;25.368;2024-01-27T13:11:50;6.65;;;2.00;;
84864;SDS011;75122;41.650;25.368;2024-01-27T13:14:15;6.13;;;1.90;;
84864;SDS011;75122;41.650;25.368;2024-01-27T13:16:43;5.88;;;2.85;;
84864;SDS011;75122;41.650;25.368;2024-01-27T13:19:09;4.00;;;1.38;;
84864;SDS011;75122;41.650;25.368;2024-01-27T13:21:34;3.58;;;2.50;;
84864;SDS011;75122;41.650;25.368;2024-01-27T13:24:00;6.72;;;3.00;;
84864;SDS011;75122;41.650;25.368;2024-01-27T13:26:25;5.30;;;3.35;;
84864;SDS011;75122;41.650;25.368;2024-01-27T13:28:51;5.88;;;3.03;;
84864;SDS011;75122;41.650;25.368;2024-01-27T13:31:16;7.82;;;3.58;;
84864;SDS011;75122;41.650;25.368;2024-01-27T13:33:43;7.88;;;3.50;;
84864;SDS011;75122;41.650;25.368;2024-01-27T13:36:08;4.97;;;2.50;;
84864;SDS011;75122;41.650;25.368;2024-01-27T13:38:34;4.75;;;2.53;;
84864;SDS011;75122;41.650;25.368;2024-01-27T13:41:00;3.83;;;2.03;;
84864;SDS011;75122;41.650;25.368;2024-01-27T13:43:26;4.50;;;2.67;;
84864;SDS011;75122;41.650;25.368;2024-01-27T13:45:51;3.00;;;1.98;;
84864;SDS011;75122;41.650;25.368;2024-01-27T13:48:19;6.00;;;1.92;;
84864;SDS011;75122;41.650;25.368;2024-01-27T13:50:45;2.67;;;1.30;;
84864;SDS011;75122;41.650;25.368;2024-01-27T13:53:11;2.47;;;1.80;;
84864;SDS011;75122;41.650;25.368;2024-01-27T13:55:36;6.72;;;2.58;;
84864;SDS011;75122;41.650;25.368;2024-01-27T13:58:02;6.28;;;3.35;;
84864;SDS011;75122;41.650;25.368;2024-01-27T14:00:28;5.35;;;2.47;;
84864;SDS011;75122;41.650;25.368;2024-01-27T14:02:54;3.63;;;2.25;;
84864;SDS011;75122;41.650;25.368;2024-01-27T14:05:19;4.18;;;2.50;;
84864;SDS011;75122;41.650;25.368;2024-01-27T14:07:45;7.10;;;3.47;;
84864;SDS011;75122;41.650;25.368;2024-01-27T14:10:10;5.78;;;2.90;;
84864;SDS011;75122;41.650;25.368;2024-01-27T14:12:36;5.95;;;3.38;;
84864;SDS011;75122;41.650;25.368;2024-01-27T14:15:02;4.93;;;2.63;;
84864;SDS011;75122;41.650;25.368;2024-01-27T14:17:31;9.65;;;4.22;;